Time;durP1;ratioP1;P1;durP2;ratioP2;P2;SDS_P1;SDS_P2;PMS_P1;PMS_P2;Temp;Humidity;BMP_temperature;BMP_pressure;BME280_temperature;BME280_humidity;BME280_pressure;Samples;Min_cycle;Max_cycle;Signal;HPM_P1;HPM_P2
2023/10/30 00:01:17;;;;;;;9.00;8.07;;;;;;;;;;4936338;29;20432;-44
2023/10/30 00:03:44;;;;;;;9.07;8.27;;;;;;;;;;4937030;29;20471;-44
2023/10/30 00:06:11;;;;;;;9.30;8.40;;;;;;;;;;4937377;29;20420;-44
2023/10/30 00:08:37;;;;;;;9.10;8.27;;;;;;;;;;4937081;29;20417;-44
2023/10/30 00:11:03;;;;;;;8.43;7.60;;;;;;;;;;4936198;29;20946;-44
2023/10/30 00:13:28;;;;;;;8.97;8.10;;;;;;;;;;4937053;29;20755;-44
2023/10/30 00:15:55;;;;;;;9.53;8.60;;;;;;;;;;4929790;29;20426;-45
2023/10/30 00:18:21;;;;;;;9.50;8.60;;;;;;;;;;4937042;29;20939;-44
2023/10/30 00:20:47;;;;;;;8.77;7.93;;;;;;;;;;4935960;29;20440;-45
2023/10/30 00:23:13;;;;;;;9.70;8.80;;;;;;;;;;4936598;29;20429;-46
2023/10/30 00:25:39;;;;;;;9.53;8.63;;;;;;;;;;4936751;29;20471;-44
2023/10/30 00:28:05;;;;;;;9.77;8.87;;;;;;;;;;4936658;29;20405;-45
2023/10/30 00:30:31;;;;;;;9.77;8.93;;;;;;;;;;4935904;29;20426;-44
2023/10/30 00:32:57;;;;;;;9.43;8.57;;;;;;;;;;4936852;28;20493;-45
2023/10/30 00:35:24;;;;;;;9.50;8.60;;;;;;;;;;4936697;29;20922;-44
2023/10/30 00:37:50;;;;;;;10.83;9.93;;;;;;;;;;4936540;29;20421;-44
2023/10/30 00:40:16;;;;;;;9.03;8.23;;;;;;;;;;4935814;29;20432;-44
2023/10/30 00:42:42;;;;;;;9.00;8.10;;;;;;;;;;4936545;29;20565;-44
2023/10/30 00:45:08;;;;;;;10.10;9.17;;;;;;;;;;4936426;29;20502;-44
2023/10/30 00:47:38;;;;;;;9.17;8.27;;;;;;;;;;4936361;29;20416;-44
2023/10/30 00:50:04;;;;;;;9.57;8.67;;;;;;;;;;4935612;29;20780;-44
2023/10/30 00:52:30;;;;;;;9.67;8.77;;;;;;;;;;4936338;29;20413;-45
2023/10/30 00:54:56;;;;;;;10.53;9.60;;;;;;;;;;4936317;29;20919;-44
2023/10/30 00:57:22;;;;;;;9.30;8.40;;;;;;;;;;4936334;29;20496;-44
2023/10/30 00:59:48;;;;;;;10.23;9.23;;;;;;;;;;4935266;29;20954;-44
2023/10/30 01:02:14;;;;;;;9.20;8.30;;;;;;;;;;4936327;28;20798;-44
2023/10/30 01:04:40;;;;;;;8.67;7.83;;;;;;;;;;4936054;29;20500;-44
2023/10/30 01:07:06;;;;;;;8.60;7.67;;;;;;;;;;4935223;29;21006;-44
2023/10/30 01:09:32;;;;;;;8.20;7.37;;;;;;;;;;4935258;29;20782;-45
2023/10/30 01:11:59;;;;;;;8.80;7.90;;;;;;;;;;4935942;29;20420;-44
2023/10/30 01:14:25;;;;;;;9.87;8.90;;;;;;;;;;4935805;29;20430;-45
2023/10/30 01:16:51;;;;;;;8.77;7.97;;;;;;;;;;4934678;29;20780;-45
2023/10/30 01:19:17;;;;;;;14.27;11.57;;;;;;;;;;4949736;28;20953;-44
2023/10/30 01:21:44;;;;;;;8.80;7.90;;;;;;;;;;4940891;29;20419;-44
2023/10/30 01:24:11;;;;;;;8.83;8.03;;;;;;;;;;4935685;29;20466;-44
2023/10/30 01:26:39;;;;;;;9.40;8.50;;;;;;;;;;4935690;29;20548;-44
2023/10/30 01:29:05;;;;;;;12.00;10.70;;;;;;;;;;4935093;29;20408;-44
2023/10/30 01:31:30;;;;;;;7.97;7.17;;;;;;;;;;4935206;29;20422;-44
2023/10/30 01:33:57;;;;;;;7.90;7.10;;;;;;;;;;4939085;29;20923;-44
2023/10/30 01:36:26;;;;;;;9.20;8.30;;;;;;;;;;4941348;29;20417;-51
2023/10/30 01:38:52;;;;;;;8.60;7.70;;;;;;;;;;4942114;29;20423;-43
2023/10/30 01:41:18;;;;;;;8.37;7.53;;;;;;;;;;4935074;29;20441;-43
2023/10/30 01:43:44;;;;;;;8.70;7.80;;;;;;;;;;4937188;29;20940;-43
2023/10/30 01:46:10;;;;;;;9.87;8.93;;;;;;;;;;4935413;29;20488;-43
2023/10/30 01:48:37;;;;;;;8.50;7.70;;;;;;;;;;4935201;29;20842;-43
2023/10/30 01:51:05;;;;;;;8.67;7.77;;;;;;;;;;4934484;29;20476;-43
2023/10/30 01:53:33;;;;;;;8.43;7.60;;;;;;;;;;4935178;29;20416;-43
2023/10/30 01:56:00;;;;;;;8.83;7.87;;;;;;;;;;4935008;29;20417;-43
2023/10/30 01:58:27;;;;;;;11.33;9.00;;;;;;;;;;4934852;29;20472;-43
2023/10/30 02:00:53;;;;;;;10.93;9.03;;;;;;;;;;4937411;29;20974;-44
2023/10/30 02:03:19;;;;;;;8.97;8.07;;;;;;;;;;4934305;29;20548;-44
2023/10/30 02:05:45;;;;;;;8.13;7.40;;;;;;;;;;4934389;29;20477;-43
2023/10/30 02:08:11;;;;;;;8.03;7.23;;;;;;;;;;4934984;29;20595;-43
2023/10/30 02:10:37;;;;;;;8.33;7.53;;;;;;;;;;4934371;28;20436;-43
2023/10/30 02:13:05;;;;;;;7.80;7.00;;;;;;;;;;4936785;29;20409;-44
2023/10/30 02:15:31;;;;;;;9.50;8.60;;;;;;;;;;4934774;29;20423;-43
2023/10/30 02:17:57;;;;;;;8.07;7.27;;;;;;;;;;4939624;29;20423;-43
2023/10/30 02:20:23;;;;;;;8.40;7.60;;;;;;;;;;4938406;29;20436;-44
2023/10/30 02:22:49;;;;;;;8.30;7.50;;;;;;;;;;4934070;29;20456;-43
2023/10/30 02:25:18;;;;;;;7.93;6.97;;;;;;;;;;4934463;28;20543;-43
2023/10/30 02:27:44;;;;;;;7.87;7.10;;;;;;;;;;4934607;29;20442;-43
2023/10/30 02:30:13;;;;;;;9.03;8.13;;;;;;;;;;4933977;29;20487;-43
2023/10/30 02:32:44;;;;;;;8.30;7.50;;;;;;;;;;4942571;29;20423;-44
2023/10/30 02:35:12;;;;;;;9.23;8.33;;;;;;;;;;4933433;29;20859;-43
2023/10/30 02:37:38;;;;;;;8.07;7.27;;;;;;;;;;4934388;28;20420;-44
2023/10/30 02:40:04;;;;;;;7.47;6.77;;;;;;;;;;4933598;29;20496;-43
2023/10/30 02:42:30;;;;;;;8.47;7.63;;;;;;;;;;4934527;29;20474;-44
2023/10/30 02:44:56;;;;;;;8.07;7.23;;;;;;;;;;4934337;29;21051;-43
2023/10/30 02:47:24;;;;;;;8.33;7.50;;;;;;;;;;4934513;28;20439;-43
2023/10/30 02:49:50;;;;;;;8.50;7.63;;;;;;;;;;4933641;29;20429;-43
2023/10/30 02:52:16;;;;;;;8.47;7.67;;;;;;;;;;4934341;29;20444;-44
2023/10/30 02:54:42;;;;;;;7.57;6.77;;;;;;;;;;4934336;29;20434;-43
2023/10/30 02:57:07;;;;;;;9.00;8.20;;;;;;;;;;4934317;29;20417;-44
2023/10/30 02:59:33;;;;;;;8.80;7.90;;;;;;;;;;4933489;29;20524;-44
2023/10/30 03:01:59;;;;;;;7.63;6.90;;;;;;;;;;4948970;28;20493;-43
2023/10/30 03:04:25;;;;;;;8.13;7.13;;;;;;;;;;4934266;29;20508;-43
2023/10/30 03:06:51;;;;;;;9.10;8.20;;;;;;;;;;4934184;28;20423;-43
2023/10/30 03:09:17;;;;;;;13.57;10.73;;;;;;;;;;4933558;29;20397;-43
2023/10/30 03:11:43;;;;;;;8.67;7.87;;;;;;;;;;4934231;29;20772;-43
2023/10/30 03:14:09;;;;;;;8.43;7.60;;;;;;;;;;4934219;29;20509;-43
2023/10/30 03:16:35;;;;;;;8.73;7.90;;;;;;;;;;4934169;29;20419;-43
2023/10/30 03:19:01;;;;;;;10.47;9.30;;;;;;;;;;4933778;29;20426;-43
2023/10/30 03:21:27;;;;;;;8.80;7.90;;;;;;;;;;4933500;28;20811;-44
2023/10/30 03:23:53;;;;;;;7.77;7.03;;;;;;;;;;4933926;29;20535;-43
2023/10/30 03:26:19;;;;;;;8.20;7.40;;;;;;;;;;4934093;29;20413;-43
2023/10/30 03:28:45;;;;;;;7.83;7.00;;;;;;;;;;4934045;29;20446;-43
2023/10/30 03:31:11;;;;;;;8.40;7.50;;;;;;;;;;4930074;29;21015;-44
2023/10/30 03:33:37;;;;;;;7.77;7.07;;;;;;;;;;4938163;29;20416;-43
2023/10/30 03:36:04;;;;;;;9.60;8.70;;;;;;;;;;4937474;29;20463;-43
2023/10/30 03:38:30;;;;;;;9.10;8.30;;;;;;;;;;4937569;29;20500;-43
2023/10/30 03:40:56;;;;;;;8.63;7.73;;;;;;;;;;4936749;29;20851;-43
2023/10/30 03:43:21;;;;;;;8.23;7.43;;;;;;;;;;4937427;29;20472;-44
2023/10/30 03:45:47;;;;;;;9.00;8.10;;;;;;;;;;4937399;29;20464;-44
2023/10/30 03:48:13;;;;;;;8.73;7.93;;;;;;;;;;4937507;29;20405;-44
2023/10/30 03:50:39;;;;;;;8.63;7.70;;;;;;;;;;4936551;29;20442;-44
2023/10/30 03:53:05;;;;;;;8.03;7.20;;;;;;;;;;4937330;29;20434;-43
2023/10/30 03:55:32;;;;;;;9.20;8.37;;;;;;;;;;4937372;29;20788;-43
2023/10/30 03:57:58;;;;;;;8.57;7.70;;;;;;;;;;4937385;28;20417;-43
2023/10/30 04:00:24;;;;;;;10.07;9.13;;;;;;;;;;4936452;29;20447;-43
2023/10/30 04:02:50;;;;;;;9.90;8.90;;;;;;;;;;4937097;29;20437;-43
2023/10/30 04:05:16;;;;;;;9.70;8.70;;;;;;;;;;4937006;29;20513;-44
2023/10/30 04:07:42;;;;;;;8.93;8.03;;;;;;;;;;4937204;29;20835;-44
2023/10/30 04:10:09;;;;;;;8.60;7.80;;;;;;;;;;4936411;28;20518;-43
2023/10/30 04:12:35;;;;;;;8.40;7.60;;;;;;;;;;4937104;29;20424;-43
2023/10/30 04:15:01;;;;;;;8.03;7.23;;;;;;;;;;4936966;29;20421;-44
2023/10/30 04:17:27;;;;;;;9.27;8.40;;;;;;;;;;4936962;29;20823;-44
2023/10/30 04:19:53;;;;;;;9.00;8.10;;;;;;;;;;4935841;29;20783;-44
2023/10/30 04:22:18;;;;;;;8.73;7.83;;;;;;;;;;4936754;29;20423;-43
2023/10/30 04:24:44;;;;;;;9.70;8.80;;;;;;;;;;4936653;29;20505;-43
2023/10/30 04:27:10;;;;;;;9.03;8.10;;;;;;;;;;4943341;29;20412;-43
2023/10/30 04:29:36;;;;;;;8.83;7.93;;;;;;;;;;4936198;29;20429;-44
2023/10/30 04:32:03;;;;;;;7.83;6.93;;;;;;;;;;4938614;29;20784;-44
2023/10/30 04:34:29;;;;;;;8.17;6.40;;;;;;;;;;4938228;29;20414;-43
2023/10/30 04:36:55;;;;;;;7.80;6.67;;;;;;;;;;4937972;29;20428;-43
2023/10/30 04:39:21;;;;;;;11.80;9.17;;;;;;;;;;4940689;29;20422;-43
2023/10/30 04:41:48;;;;;;;8.30;7.20;;;;;;;;;;4936303;29;20423;-44
2023/10/30 04:44:14;;;;;;;7.63;6.37;;;;;;;;;;4936656;29;21051;-44
2023/10/30 04:46:40;;;;;;;6.70;6.00;;;;;;;;;;4938276;29;20460;-44
2023/10/30 04:49:06;;;;;;;8.33;7.17;;;;;;;;;;4939467;29;20742;-43
2023/10/30 04:51:32;;;;;;;8.00;6.90;;;;;;;;;;4935911;29;20813;-44
2023/10/30 04:53:58;;;;;;;7.73;6.77;;;;;;;;;;4937112;29;20860;-44
2023/10/30 04:56:24;;;;;;;7.90;7.10;;;;;;;;;;4941820;29;20415;-45
2023/10/30 04:58:50;;;;;;;7.50;6.70;;;;;;;;;;4936340;28;20422;-44
2023/10/30 05:01:16;;;;;;;8.47;7.67;;;;;;;;;;4937162;29;20516;-43
2023/10/30 05:03:42;;;;;;;9.63;8.73;;;;;;;;;;4935960;29;20972;-44
2023/10/30 05:06:08;;;;;;;8.07;7.27;;;;;;;;;;4941020;29;20416;-45
2023/10/30 05:08:36;;;;;;;9.00;8.20;;;;;;;;;;4935971;29;20515;-44
2023/10/30 05:11:02;;;;;;;8.80;7.90;;;;;;;;;;4933853;29;20436;-44
2023/10/30 05:13:28;;;;;;;8.50;7.63;;;;;;;;;;4936200;29;20811;-43
2023/10/30 05:15:56;;;;;;;8.43;7.53;;;;;;;;;;4935841;29;20902;-44
2023/10/30 05:18:24;;;;;;;9.13;8.10;;;;;;;;;;4939069;29;20447;-44
2023/10/30 05:20:50;;;;;;;15.70;11.87;;;;;;;;;;4933920;29;21008;-44
2023/10/30 05:23:16;;;;;;;7.63;6.77;;;;;;;;;;4942023;29;20478;-44
2023/10/30 05:25:42;;;;;;;7.57;6.30;;;;;;;;;;4935530;29;20897;-44
2023/10/30 05:28:08;;;;;;;7.57;6.57;;;;;;;;;;4937370;29;20408;-44
2023/10/30 05:30:35;;;;;;;8.43;7.60;;;;;;;;;;4934746;28;20439;-44
2023/10/30 05:33:01;;;;;;;9.80;8.90;;;;;;;;;;4935525;29;20794;-44
2023/10/30 05:35:27;;;;;;;9.80;8.90;;;;;;;;;;4935505;29;20427;-43
2023/10/30 05:37:53;;;;;;;8.67;7.87;;;;;;;;;;4941863;29;20422;-44
2023/10/30 05:40:21;;;;;;;8.27;7.43;;;;;;;;;;4934599;29;21006;-43
2023/10/30 05:42:47;;;;;;;9.73;8.77;;;;;;;;;;4937004;29;20424;-43
2023/10/30 05:45:13;;;;;;;7.63;6.43;;;;;;;;;;4938631;29;20468;-43
2023/10/30 05:47:39;;;;;;;9.97;9.07;;;;;;;;;;4930746;29;20421;-44
2023/10/30 05:50:05;;;;;;;9.57;8.67;;;;;;;;;;4934533;29;20490;-44
2023/10/30 05:52:31;;;;;;;9.00;8.17;;;;;;;;;;4934795;29;20411;-43
2023/10/30 05:54:57;;;;;;;8.50;7.70;;;;;;;;;;4935425;29;20416;-44
2023/10/30 05:57:23;;;;;;;9.30;8.40;;;;;;;;;;4935191;29;20935;-44
2023/10/30 05:59:49;;;;;;;8.93;8.03;;;;;;;;;;4937375;29;20802;-44
2023/10/30 06:02:15;;;;;;;8.70;7.80;;;;;;;;;;4934943;29;20425;-43
2023/10/30 06:04:41;;;;;;;8.17;7.33;;;;;;;;;;4934916;29;21052;-44
2023/10/30 06:07:07;;;;;;;7.67;6.87;;;;;;;;;;4934948;29;20418;-44
2023/10/30 06:09:33;;;;;;;8.10;7.10;;;;;;;;;;4934127;29;20436;-44
2023/10/30 06:11:59;;;;;;;8.13;6.77;;;;;;;;;;4934863;29;20477;-44
2023/10/30 06:14:25;;;;;;;8.27;6.27;;;;;;;;;;4933828;29;20451;-44
2023/10/30 06:16:51;;;;;;;7.43;6.43;;;;;;;;;;4938829;29;20893;-44
2023/10/30 06:19:17;;;;;;;15.50;11.00;;;;;;;;;;4939932;29;20476;-43
2023/10/30 06:21:43;;;;;;;8.23;6.97;;;;;;;;;;4930498;29;20946;-44
2023/10/30 06:24:09;;;;;;;8.93;5.97;;;;;;;;;;4931085;28;20994;-44
2023/10/30 06:26:35;;;;;;;9.47;6.97;;;;;;;;;;4933095;29;20458;-44
2023/10/30 06:29:01;;;;;;;12.00;8.40;;;;;;;;;;4932287;29;20900;-44
2023/10/30 06:31:27;;;;;;;9.93;7.00;;;;;;;;;;4932198;29;20428;-44
2023/10/30 06:33:54;;;;;;;9.50;5.77;;;;;;;;;;4935139;29;20891;-44
2023/10/30 06:36:20;;;;;;;8.20;5.30;;;;;;;;;;4933190;29;20422;-44
2023/10/30 06:38:46;;;;;;;8.20;5.37;;;;;;;;;;4932970;29;20423;-43
2023/10/30 06:41:13;;;;;;;7.93;5.90;;;;;;;;;;4933731;29;20434;-43
2023/10/30 06:43:39;;;;;;;8.03;5.83;;;;;;;;;;4934134;29;20529;-44
2023/10/30 06:46:06;;;;;;;7.90;5.60;;;;;;;;;;4934379;29;20424;-43
2023/10/30 06:48:32;;;;;;;7.17;4.80;;;;;;;;;;4934477;29;20609;-43
2023/10/30 06:50:58;;;;;;;7.53;5.60;;;;;;;;;;4933699;29;20482;-43
2023/10/30 06:53:24;;;;;;;6.93;4.93;;;;;;;;;;4934375;29;20424;-43
2023/10/30 06:55:51;;;;;;;9.43;7.13;;;;;;;;;;4934066;29;20903;-43
2023/10/30 06:58:17;;;;;;;7.97;6.17;;;;;;;;;;4934187;29;20422;-43
2023/10/30 07:00:43;;;;;;;7.33;5.77;;;;;;;;;;4933650;28;20870;-43
2023/10/30 07:03:09;;;;;;;7.23;5.60;;;;;;;;;;4934468;28;20429;-43
2023/10/30 07:05:35;;;;;;;7.43;4.87;;;;;;;;;;4936308;29;20464;-43
2023/10/30 07:08:01;;;;;;;7.13;5.30;;;;;;;;;;4938569;29;20449;-43
2023/10/30 07:10:27;;;;;;;7.90;5.53;;;;;;;;;;4937330;29;20870;-43
2023/10/30 07:12:53;;;;;;;7.80;6.30;;;;;;;;;;4938217;29;20507;-43
2023/10/30 07:15:20;;;;;;;7.73;5.60;;;;;;;;;;4937989;29;20968;-44
2023/10/30 07:17:47;;;;;;;8.00;5.83;;;;;;;;;;4938056;29;20422;-43
2023/10/30 07:20:13;;;;;;;8.00;5.57;;;;;;;;;;4937149;29;20436;-43
2023/10/30 07:22:39;;;;;;;6.63;4.77;;;;;;;;;;4937822;29;20779;-43
2023/10/30 07:25:06;;;;;;;7.13;4.97;;;;;;;;;;4937671;29;20456;-43
2023/10/30 07:27:33;;;;;;;9.30;8.27;;;;;;;;;;4937786;29;20513;-43
2023/10/30 07:29:59;;;;;;;8.57;7.63;;;;;;;;;;4936984;29;21064;-43
2023/10/30 07:32:25;;;;;;;11.57;10.57;;;;;;;;;;4937825;29;20491;-43
2023/10/30 07:34:51;;;;;;;6.93;6.20;;;;;;;;;;4937601;29;20428;-43
2023/10/30 07:37:17;;;;;;;7.97;6.83;;;;;;;;;;4938483;28;20415;-43
2023/10/30 07:39:44;;;;;;;8.03;7.03;;;;;;;;;;4936596;29;20435;-44
2023/10/30 07:42:10;;;;;;;8.63;6.97;;;;;;;;;;4937574;29;21055;-43
2023/10/30 07:44:36;;;;;;;9.50;7.23;;;;;;;;;;4937461;29;20465;-44
2023/10/30 07:47:02;;;;;;;7.63;6.73;;;;;;;;;;4937505;29;20423;-43
2023/10/30 07:49:28;;;;;;;8.60;6.60;;;;;;;;;;4936620;29;20419;-43
2023/10/30 07:51:54;;;;;;;7.77;6.53;;;;;;;;;;4937420;29;20936;-44
2023/10/30 07:54:21;;;;;;;8.10;7.03;;;;;;;;;;4937359;29;20431;-43
2023/10/30 07:56:47;;;;;;;8.67;7.10;;;;;;;;;;4937296;29;20430;-43
2023/10/30 07:59:13;;;;;;;12.33;9.37;;;;;;;;;;4936491;29;20836;-43
2023/10/30 08:01:39;;;;;;;9.67;8.67;;;;;;;;;;4937274;29;20787;-43
2023/10/30 08:04:06;;;;;;;8.40;7.60;;;;;;;;;;4936999;29;20458;-43
2023/10/30 08:06:32;;;;;;;7.60;6.63;;;;;;;;;;4937189;29;20461;-43
2023/10/30 08:08:58;;;;;;;10.07;9.07;;;;;;;;;;4937189;29;20824;-44
2023/10/30 08:11:24;;;;;;;10.13;9.20;;;;;;;;;;4936611;29;20445;-43
2023/10/30 08:13:50;;;;;;;10.23;9.23;;;;;;;;;;4936962;29;20477;-43
2023/10/30 08:16:16;;;;;;;10.27;9.27;;;;;;;;;;4936510;29;20418;-43
2023/10/30 08:18:42;;;;;;;9.73;8.73;;;;;;;;;;4936747;29;20413;-44
2023/10/30 08:21:08;;;;;;;9.70;8.80;;;;;;;;;;4936244;29;20434;-43
2023/10/30 08:23:36;;;;;;;10.60;9.60;;;;;;;;;;4937014;29;20430;-43
2023/10/30 08:26:03;;;;;;;10.27;9.37;;;;;;;;;;4943170;29;20813;-44
2023/10/30 08:28:29;;;;;;;11.07;10.17;;;;;;;;;;4944629;29;20411;-43
2023/10/30 08:30:55;;;;;;;12.50;11.50;;;;;;;;;;4936100;29;20470;-43
2023/10/30 08:33:21;;;;;;;12.10;11.13;;;;;;;;;;4936655;29;20922;-44
2023/10/30 08:35:47;;;;;;;12.97;11.97;;;;;;;;;;4941188;29;20942;-44
2023/10/30 08:38:13;;;;;;;12.40;11.30;;;;;;;;;;4936404;29;20458;-44
2023/10/30 08:40:39;;;;;;;13.90;12.80;;;;;;;;;;4935998;29;20439;-44
2023/10/30 08:43:05;;;;;;;14.60;13.50;;;;;;;;;;4951159;28;20514;-44
2023/10/30 08:45:31;;;;;;;12.47;11.50;;;;;;;;;;4936417;29;20473;-44
2023/10/30 08:47:57;;;;;;;15.33;14.23;;;;;;;;;;4939702;29;20835;-44
2023/10/30 08:50:23;;;;;;;15.20;14.07;;;;;;;;;;4934586;29;20809;-44
2023/10/30 08:52:49;;;;;;;14.40;13.40;;;;;;;;;;4936272;29;20443;-44
2023/10/30 08:55:15;;;;;;;16.73;15.63;;;;;;;;;;4936251;29;20903;-44
2023/10/30 08:57:41;;;;;;;17.90;16.63;;;;;;;;;;4936234;29;20422;-43
2023/10/30 09:00:07;;;;;;;18.13;16.93;;;;;;;;;;4935525;29;20439;-44
2023/10/30 09:02:34;;;;;;;19.40;18.20;;;;;;;;;;4939198;29;20423;-43
2023/10/30 09:05:00;;;;;;;18.87;17.57;;;;;;;;;;4936042;29;20990;-43
2023/10/30 09:07:26;;;;;;;20.70;19.30;;;;;;;;;;4942156;29;20486;-44
2023/10/30 09:09:52;;;;;;;21.00;19.70;;;;;;;;;;4935035;29;20445;-43
2023/10/30 09:12:18;;;;;;;24.40;22.90;;;;;;;;;;4937622;29;20410;-43
2023/10/30 09:14:44;;;;;;;29.80;28.10;;;;;;;;;;4937574;29;20440;-43
2023/10/30 09:17:10;;;;;;;44.20;41.77;;;;;;;;;;4938150;28;20411;-44
2023/10/30 09:19:37;;;;;;;36.97;34.87;;;;;;;;;;4927631;29;20443;-45
2023/10/30 09:22:03;;;;;;;31.77;30.00;;;;;;;;;;4936245;29;20432;-44
2023/10/30 09:24:29;;;;;;;29.23;27.53;;;;;;;;;;4935422;29;20469;-46
2023/10/30 09:26:55;;;;;;;27.90;26.30;;;;;;;;;;4946312;28;20417;-45
2023/10/30 09:29:21;;;;;;;38.80;36.23;;;;;;;;;;4945336;29;20422;-44
2023/10/30 09:31:49;;;;;;;29.63;27.93;;;;;;;;;;4940661;29;20438;-43
2023/10/30 09:34:15;;;;;;;31.43;29.60;;;;;;;;;;4954510;28;21029;-44
2023/10/30 09:36:41;;;;;;;28.80;27.10;;;;;;;;;;4954689;28;20547;-43
2023/10/30 09:39:07;;;;;;;28.93;27.00;;;;;;;;;;4935067;29;20503;-43
2023/10/30 09:41:36;;;;;;;27.83;26.33;;;;;;;;;;4951049;29;20444;-43
2023/10/30 09:44:03;;;;;;;27.43;25.93;;;;;;;;;;4940612;29;20438;-44
2023/10/30 09:46:30;;;;;;;28.83;27.23;;;;;;;;;;4935251;29;21034;-44
2023/10/30 09:48:56;;;;;;;33.50;31.60;;;;;;;;;;4943132;29;20565;-44
2023/10/30 09:51:23;;;;;;;30.27;28.63;;;;;;;;;;4947657;28;20553;-44
2023/10/30 09:53:50;;;;;;;32.20;30.37;;;;;;;;;;4937240;29;20413;-44
2023/10/30 09:56:16;;;;;;;33.63;31.83;;;;;;;;;;4954351;29;20434;-45
2023/10/30 09:58:42;;;;;;;37.10;35.13;;;;;;;;;;4935427;29;20430;-44
2023/10/30 10:01:08;;;;;;;37.97;35.97;;;;;;;;;;4934225;29;20859;-44
2023/10/30 10:03:34;;;;;;;29.47;27.77;;;;;;;;;;4934837;29;20420;-44
2023/10/30 10:06:01;;;;;;;36.37;34.37;;;;;;;;;;4934836;29;21068;-44
2023/10/30 10:08:27;;;;;;;45.97;43.43;;;;;;;;;;4940863;28;20453;-44
2023/10/30 10:10:54;;;;;;;52.40;49.27;;;;;;;;;;4953224;29;20411;-44
2023/10/30 10:13:20;;;;;;;42.07;39.60;;;;;;;;;;4953151;29;20401;-43
2023/10/30 10:15:46;;;;;;;32.80;30.97;;;;;;;;;;4947351;29;20387;-44
2023/10/30 10:18:32;;;;;;;26.43;24.93;;;;;;;;;;4934708;29;20480;-43
2023/10/30 10:21:03;;;;;;;28.13;26.27;;;;;;;;;;4933195;29;20496;-44
2023/10/30 10:23:31;;;;;;;29.97;28.27;;;;;;;;;;4934068;29;20849;-44
2023/10/30 10:25:57;;;;;;;26.33;24.87;;;;;;;;;;4934757;29;20533;-44
2023/10/30 10:28:24;;;;;;;25.10;23.70;;;;;;;;;;4934755;29;20834;-44
2023/10/30 10:30:51;;;;;;;28.97;27.10;;;;;;;;;;4933661;29;20427;-44
2023/10/30 10:33:21;;;;;;;26.30;24.73;;;;;;;;;;4934698;29;20739;-44
2023/10/30 10:35:48;;;;;;;33.70;31.73;;;;;;;;;;4934448;29;20385;-44
2023/10/30 10:38:16;;;;;;;99.77;91.27;;;;;;;;;;4934444;29;20415;-44
2023/10/30 10:40:43;;;;;;;71.63;67.50;;;;;;;;;;4953046;29;20433;-44
2023/10/30 10:43:09;;;;;;;95.27;88.73;;;;;;;;;;4937780;29;20425;-44
2023/10/30 10:45:37;;;;;;;96.30;89.80;;;;;;;;;;4934174;29;20465;-44
2023/10/30 10:48:05;;;;;;;91.70;85.80;;;;;;;;;;4941994;29;20762;-44
2023/10/30 10:50:33;;;;;;;74.23;70.10;;;;;;;;;;4932842;29;20450;-44
2023/10/30 10:52:59;;;;;;;53.87;50.93;;;;;;;;;;4934459;29;20888;-44
2023/10/30 10:55:27;;;;;;;84.73;79.57;;;;;;;;;;4933910;29;21001;-43
2023/10/30 10:57:58;;;;;;;117.57;107.93;;;;;;;;;;4934358;29;20393;-45
2023/10/30 11:00:28;;;;;;;73.50;69.23;;;;;;;;;;4928201;29;20438;-45
2023/10/30 11:02:55;;;;;;;54.97;52.13;;;;;;;;;;4941558;29;20422;-44
2023/10/30 11:05:26;;;;;;;41.00;38.90;;;;;;;;;;4934384;29;20533;-44
2023/10/30 11:08:07;;;;;;;39.60;37.60;;;;;;;;;;4934240;29;20411;-44
2023/10/30 11:10:34;;;;;;;48.50;46.00;;;;;;;;;;4933571;29;20466;-44
2023/10/30 11:13:10;;;;;;;106.27;95.63;;;;;;;;;;4939928;29;20414;-44
2023/10/30 11:15:39;;;;;;;71.23;66.90;;;;;;;;;;4934241;29;20389;-44
2023/10/30 11:18:21;;;;;;;49.87;47.07;;;;;;;;;;4927794;29;20802;-44
2023/10/30 11:20:48;;;;;;;97.90;90.40;;;;;;;;;;4935789;29;20404;-44
2023/10/30 11:23:34;;;;;;;96.87;89.30;;;;;;;;;;4923527;29;20460;-44
2023/10/30 11:26:00;;;;;;;89.87;83.57;;;;;;;;;;4927834;29;20472;-44
2023/10/30 11:28:27;;;;;;;83.37;77.87;;;;;;;;;;4930955;29;20484;-44
2023/10/30 11:30:53;;;;;;;119.63;108.57;;;;;;;;;;4932207;29;20928;-44
2023/10/30 11:33:23;;;;;;;115.00;104.93;;;;;;;;;;4929567;29;20493;-44
2023/10/30 11:36:12;;;;;;;138.63;116.83;;;;;;;;;;4933879;29;20472;-44
2023/10/30 11:38:53;;;;;;;231.63;142.63;;;;;;;;;;4933975;29;20393;-44
2023/10/30 11:41:19;;;;;;;189.50;136.93;;;;;;;;;;4932732;29;20733;-43
2023/10/30 11:43:45;;;;;;;166.13;137.73;;;;;;;;;;4941122;29;20446;-44
2023/10/30 11:46:14;;;;;;;153.47;137.20;;;;;;;;;;4933930;29;20448;-44
2023/10/30 11:48:40;;;;;;;154.93;136.87;;;;;;;;;;4933968;29;20910;-44
2023/10/30 11:51:08;;;;;;;141.87;127.23;;;;;;;;;;4934643;29;20782;-44
2023/10/30 11:53:34;;;;;;;143.37;129.63;;;;;;;;;;4941464;28;20779;-44
2023/10/30 11:56:01;;;;;;;119.37;110.20;;;;;;;;;;4937290;29;20453;-43
2023/10/30 11:58:27;;;;;;;93.17;86.83;;;;;;;;;;4944386;29;20442;-44
2023/10/30 12:00:53;;;;;;;95.60;88.83;;;;;;;;;;4931532;29;20459;-44
2023/10/30 12:03:19;;;;;;;60.93;57.60;;;;;;;;;;4929510;29;20397;-44
2023/10/30 12:05:45;;;;;;;50.90;48.10;;;;;;;;;;4936425;29;20811;-44
2023/10/30 12:08:11;;;;;;;55.20;51.90;;;;;;;;;;4934699;29;20751;-43
2023/10/30 12:10:40;;;;;;;43.17;40.67;;;;;;;;;;4934139;29;20505;-43
2023/10/30 12:13:06;;;;;;;44.27;41.77;;;;;;;;;;4933410;29;20404;-43
2023/10/30 12:15:33;;;;;;;37.30;35.30;;;;;;;;;;4933680;29;20548;-44
2023/10/30 12:17:58;;;;;;;35.57;33.57;;;;;;;;;;4936989;29;20416;-44
2023/10/30 12:20:25;;;;;;;35.53;33.53;;;;;;;;;;4938702;29;20498;-44
2023/10/30 12:22:54;;;;;;;39.70;37.50;;;;;;;;;;4940054;29;20415;-43
2023/10/30 12:25:21;;;;;;;36.03;33.97;;;;;;;;;;4927738;29;20474;-43
2023/10/30 12:27:47;;;;;;;38.13;35.73;;;;;;;;;;4935122;29;20453;-43
2023/10/30 12:30:16;;;;;;;31.50;29.70;;;;;;;;;;4934076;29;20463;-44
2023/10/30 12:32:42;;;;;;;27.77;26.27;;;;;;;;;;4936931;29;20459;-44
2023/10/30 12:35:12;;;;;;;30.10;28.30;;;;;;;;;;4933223;29;20446;-45
2023/10/30 12:37:38;;;;;;;24.63;23.33;;;;;;;;;;4942154;29;20427;-45
2023/10/30 12:40:07;;;;;;;27.97;26.10;;;;;;;;;;4938146;28;20412;-44
2023/10/30 12:42:34;;;;;;;26.17;24.77;;;;;;;;;;4928227;29;20436;-45
2023/10/30 12:45:02;;;;;;;25.90;24.30;;;;;;;;;;4926466;29;20438;-44
2023/10/30 12:47:28;;;;;;;25.53;24.13;;;;;;;;;;4936415;29;20475;-44
2023/10/30 12:49:54;;;;;;;22.00;20.70;;;;;;;;;;4935625;29;20436;-43
2023/10/30 12:52:20;;;;;;;23.67;22.30;;;;;;;;;;4941866;29;20753;-44
2023/10/30 12:54:46;;;;;;;28.00;26.30;;;;;;;;;;4943284;29;20423;-43
2023/10/30 12:57:12;;;;;;;27.43;25.97;;;;;;;;;;4936887;29;20703;-44
2023/10/30 12:59:38;;;;;;;27.47;25.90;;;;;;;;;;4937629;29;21151;-44
2023/10/30 13:02:04;;;;;;;31.60;29.90;;;;;;;;;;4935140;29;20814;-43
2023/10/30 13:04:30;;;;;;;28.40;26.80;;;;;;;;;;4939896;29;20451;-43
2023/10/30 13:06:56;;;;;;;27.87;26.27;;;;;;;;;;4937325;29;20417;-44
2023/10/30 13:09:23;;;;;;;31.40;29.30;;;;;;;;;;4933481;29;20414;-44
2023/10/30 13:11:49;;;;;;;26.83;25.33;;;;;;;;;;4953589;29;20417;-44
2023/10/30 13:14:15;;;;;;;27.00;25.50;;;;;;;;;;4955217;29;20417;-44
2023/10/30 13:16:42;;;;;;;25.90;24.43;;;;;;;;;;4942429;28;20409;-44
2023/10/30 13:19:08;;;;;;;27.83;26.23;;;;;;;;;;4944150;29;20415;-45
2023/10/30 13:21:34;;;;;;;26.90;25.40;;;;;;;;;;4955155;29;20445;-45
2023/10/30 13:24:00;;;;;;;28.33;26.63;;;;;;;;;;4954664;28;20440;-44
2023/10/30 13:26:26;;;;;;;26.90;25.40;;;;;;;;;;4941199;29;20415;-44
2023/10/30 13:28:52;;;;;;;25.40;23.97;;;;;;;;;;4937548;29;20828;-43
2023/10/30 13:31:18;;;;;;;26.57;25.17;;;;;;;;;;4938522;29;20434;-43
2023/10/30 13:33:44;;;;;;;26.77;25.20;;;;;;;;;;4930371;29;20466;-44
2023/10/30 13:36:12;;;;;;;26.17;24.67;;;;;;;;;;4942482;29;20419;-44
2023/10/30 13:38:38;;;;;;;24.83;23.50;;;;;;;;;;4936673;29;20500;-44
2023/10/30 13:41:04;;;;;;;26.47;24.97;;;;;;;;;;4936707;29;20465;-44
2023/10/30 13:43:30;;;;;;;24.10;22.70;;;;;;;;;;4935536;29;20917;-45
2023/10/30 13:45:56;;;;;;;26.50;24.93;;;;;;;;;;4935853;29;20461;-44
2023/10/30 13:48:23;;;;;;;23.83;22.33;;;;;;;;;;4940488;29;20412;-44
2023/10/30 13:50:49;;;;;;;23.97;22.60;;;;;;;;;;4941268;29;20431;-44
2023/10/30 13:53:15;;;;;;;28.10;26.50;;;;;;;;;;4935706;29;20494;-44
2023/10/30 13:55:41;;;;;;;29.17;27.57;;;;;;;;;;4935176;29;20423;-44
2023/10/30 13:58:07;;;;;;;25.20;23.80;;;;;;;;;;4938766;29;20419;-44
2023/10/30 14:00:33;;;;;;;25.80;24.33;;;;;;;;;;4936583;29;20483;-44
2023/10/30 14:03:00;;;;;;;25.87;24.27;;;;;;;;;;4953984;29;20985;-44
2023/10/30 14:05:28;;;;;;;26.67;25.20;;;;;;;;;;4954230;29;20471;-45
2023/10/30 14:07:54;;;;;;;28.10;26.50;;;;;;;;;;4954096;29;20958;-44
2023/10/30 14:10:20;;;;;;;25.90;24.50;;;;;;;;;;4938261;29;20470;-44
2023/10/30 14:12:46;;;;;;;25.60;24.10;;;;;;;;;;4935023;29;20439;-45
2023/10/30 14:15:12;;;;;;;27.23;25.63;;;;;;;;;;4942412;29;20808;-45
2023/10/30 14:17:38;;;;;;;25.13;23.53;;;;;;;;;;4934803;29;20431;-44
2023/10/30 14:20:04;;;;;;;24.17;22.77;;;;;;;;;;4937654;29;20780;-44
2023/10/30 14:22:30;;;;;;;25.50;23.97;;;;;;;;;;4953979;29;20475;-45
2023/10/30 14:24:57;;;;;;;24.10;22.67;;;;;;;;;;4953790;29;20486;-44
2023/10/30 14:27:23;;;;;;;23.47;22.00;;;;;;;;;;4953856;29;20417;-44